createdAt,value
2019-05-30T00:03:25.694Z,13.91
2019-05-30T00:09:34.279Z,13.92
2019-05-30T00:15:40.335Z,13.95
2019-05-30T00:21:46.125Z,14.07
2019-05-30T00:27:51.945Z,14.38
2019-05-30T00:33:59.606Z,14.69
2019-05-30T00:40:06.161Z,14.97
2019-05-30T00:46:11.990Z,15.17
2019-05-30T00:52:18.310Z,15.30
2019-05-30T00:58:24.110Z,15.37
2019-05-30T01:04:30.061Z,15.33
2019-05-30T01:10:36.014Z,15.26
2019-05-30T01:16:42.839Z,15.16
2019-05-30T01:22:48.960Z,15.08
2019-05-30T01:28:54.877Z,15.05
2019-05-30T01:35:02.117Z,15.06
2019-05-30T01:41:08.493Z,15.11
2019-05-30T01:47:14.335Z,15.15
2019-05-30T01:53:20.428Z,15.09
2019-05-30T01:59:26.615Z,15.09
2019-05-30T02:05:32.619Z,15.13
2019-05-30T02:11:39.001Z,15.16
2019-05-30T02:17:45.142Z,15.22
2019-05-30T02:23:50.973Z,15.25
2019-05-30T02:29:56.839Z,15.30
2019-05-30T02:36:04.005Z,15.32
2019-05-30T02:42:11.684Z,15.36
2019-05-30T02:48:17.850Z,15.37
2019-05-30T02:54:23.910Z,15.40
2019-05-30T03:00:37.755Z,15.38
2019-05-30T03:06:44.123Z,15.37
2019-05-30T03:12:49.917Z,15.36
2019-05-30T03:18:55.696Z,15.36
2019-05-30T03:25:02.992Z,15.37
2019-05-30T03:31:21.902Z,15.34
2019-05-30T03:37:27.847Z,15.32
2019-05-30T03:43:25.713Z,15.33
2019-05-30T03:49:35.942Z,15.30
2019-05-30T03:55:44.406Z,15.30
2019-05-30T04:02:02.322Z,15.24
2019-05-30T04:08:12.371Z,15.20
2019-05-30T04:14:24.129Z,15.23
2019-05-30T04:20:30.544Z,15.27
2019-05-30T04:26:36.328Z,15.27
2019-05-30T04:32:42.599Z,15.37
2019-05-30T04:38:48.405Z,15.40
2019-05-30T04:44:54.389Z,15.48
2019-05-30T04:51:00.145Z,15.53
2019-05-30T04:57:06.221Z,15.60
2019-05-30T05:03:13.056Z,15.69
2019-05-30T05:09:20.291Z,15.79
2019-05-30T05:15:26.859Z,15.87
2019-05-30T05:21:32.823Z,15.97
2019-05-30T05:27:38.576Z,16.06
2019-05-30T05:33:56.133Z,16.16
2019-05-30T05:39:52.029Z,16.24
2019-05-30T05:45:58.152Z,16.34
2019-05-30T05:52:04.025Z,16.41
2019-05-30T05:58:09.773Z,16.44
2019-05-30T06:04:17.076Z,16.51
2019-05-30T06:10:24.281Z,16.52
2019-05-30T06:16:30.142Z,16.55
2019-05-30T06:22:36.155Z,16.56
2019-05-30T06:28:42.106Z,16.63
2019-05-30T06:34:49.099Z,16.74
2019-05-30T06:40:55.119Z,16.82
2019-05-30T06:47:01.090Z,16.87
2019-05-30T06:53:07.366Z,16.92
2019-05-30T06:59:13.175Z,16.99
2019-05-30T07:05:19.877Z,16.95
2019-05-30T07:11:26.807Z,16.90
2019-05-30T07:17:33.649Z,16.82
2019-05-30T07:23:40.042Z,16.69
2019-05-30T07:29:45.880Z,16.58
2019-05-30T07:35:53.193Z,16.41
2019-05-30T07:42:06.172Z,16.43
2019-05-30T07:48:06.602Z,16.36
2019-05-30T07:54:12.852Z,16.27
2019-05-30T08:00:27.284Z,16.04
2019-05-30T08:06:33.882Z,16.08
2019-05-30T08:12:40.014Z,16.11
2019-05-30T08:18:45.960Z,16.21
2019-05-30T08:24:51.888Z,16.32
2019-05-30T08:30:57.916Z,16.24
2019-05-30T08:37:03.775Z,16.51
2019-05-30T08:43:09.787Z,16.71
2019-05-30T08:49:17.020Z,16.95
2019-05-30T08:55:23.296Z,17.14
2019-05-30T09:01:29.251Z,17.37
2019-05-30T09:07:36.388Z,17.66
2019-05-30T09:13:42.728Z,18.00
2019-05-30T09:19:48.498Z,18.11
2019-05-30T09:25:54.929Z,18.29
2019-05-30T09:32:01.124Z,18.49
2019-05-30T09:38:07.282Z,18.47
2019-05-30T09:44:13.254Z,18.40
2019-05-30T09:50:19.674Z,18.32
2019-05-30T09:56:25.875Z,18.17
2019-05-30T10:02:31.657Z,18.09
2019-05-30T10:08:37.589Z,18.09
2019-05-30T10:14:45.179Z,18.21
2019-05-30T10:20:51.994Z,18.53
2019-05-30T10:26:58.793Z,18.93
2019-05-30T10:33:05.094Z,19.07
2019-05-30T10:39:11.012Z,19.19
2019-05-30T10:45:17.553Z,19.19
2019-05-30T10:51:23.627Z,19.14
2019-05-30T10:57:29.404Z,19.03
2019-05-30T11:03:35.235Z,18.97
2019-05-30T11:09:48.706Z,19.02
2019-05-30T11:15:55.501Z,19.12
2019-05-30T11:22:01.365Z,19.34
2019-05-30T11:28:07.951Z,19.45
2019-05-30T11:34:13.798Z,19.56
2019-05-30T11:40:21.178Z,19.68
2019-05-30T11:46:28.817Z,19.84
2019-05-30T11:52:34.854Z,19.85
2019-05-30T11:58:40.643Z,19.83
2019-05-30T12:04:46.393Z,19.74
2019-05-30T12:10:53.105Z,19.77
2019-05-30T12:16:59.500Z,19.73
2019-05-30T12:23:05.956Z,19.66
2019-05-30T12:29:11.852Z,19.80
2019-05-30T12:35:18.339Z,19.80
2019-05-30T12:41:24.733Z,19.69
2019-05-30T12:47:31.161Z,19.63
2019-05-30T12:53:37.108Z,19.55
2019-05-30T12:59:43.543Z,19.44
2019-05-30T13:05:49.419Z,19.41
2019-05-30T13:11:56.353Z,19.28
2019-05-30T13:18:03.071Z,19.24
2019-05-30T13:24:09.234Z,19.29
2019-05-30T13:30:16.516Z,19.21
2019-05-30T13:36:22.451Z,19.21
2019-05-30T13:42:28.326Z,19.19
2019-05-30T13:48:35.835Z,19.18
2019-05-30T13:54:41.662Z,19.21
2019-05-30T14:00:47.711Z,19.33
2019-05-30T14:06:53.952Z,19.48
2019-05-30T14:13:00.773Z,19.63
2019-05-30T14:19:09.801Z,19.75
2019-05-30T14:25:15.348Z,19.87
2019-05-30T14:31:21.361Z,20.07
2019-05-30T14:37:27.251Z,20.50
2019-05-30T14:43:33.429Z,21.00
2019-05-30T14:49:39.378Z,21.09
2019-05-30T14:55:46.073Z,21.43
2019-05-30T15:01:52.861Z,21.85
2019-05-30T15:07:59.251Z,21.94
2019-05-30T15:14:06.670Z,21.98
2019-05-30T15:20:15.444Z,21.94
2019-05-30T15:26:22.260Z,21.92
2019-05-30T15:32:28.192Z,22.22
2019-05-30T15:38:34.889Z,22.25
2019-05-30T15:44:40.671Z,22.03
2019-05-30T15:50:46.831Z,22.01
2019-05-30T15:56:52.722Z,22.23
2019-05-30T16:02:59.008Z,22.19
2019-05-30T16:09:07.030Z,22.13
2019-05-30T16:15:15.530Z,22.34
2019-05-30T16:21:22.455Z,22.13
2019-05-30T16:27:31.097Z,22.15
2019-05-30T16:33:36.793Z,22.09
2019-05-30T16:39:43.200Z,22.25
2019-05-30T16:45:48.971Z,22.12
2019-05-30T16:51:55.130Z,21.83
2019-05-30T16:58:01.195Z,21.66
2019-05-30T17:04:07.233Z,21.57
2019-05-30T17:10:25.673Z,21.75
2019-05-30T17:16:22.191Z,21.93
2019-05-30T17:22:30.507Z,22.01
2019-05-30T17:28:35.900Z,22.12
2019-05-30T17:34:41.925Z,22.16
2019-05-30T17:40:49.695Z,22.03
2019-05-30T17:46:55.734Z,21.90
2019-05-30T17:53:01.845Z,21.76
2019-05-30T17:59:08.005Z,21.62
2019-05-30T18:05:15.158Z,21.50
2019-05-30T18:11:20.931Z,21.43
2019-05-30T18:17:27.236Z,21.39
2019-05-30T18:23:33.491Z,21.33
2019-05-30T18:29:39.369Z,21.29
2019-05-30T18:35:45.402Z,21.24
2019-05-30T18:41:51.450Z,21.20
2019-05-30T18:47:57.232Z,21.11
2019-05-30T18:54:03.286Z,21.07
2019-05-30T19:00:13.258Z,20.99
2019-05-30T19:06:18.365Z,20.94
2019-05-30T19:12:24.330Z,20.92
2019-05-30T19:18:31.507Z,20.89
2019-05-30T19:24:37.581Z,20.84
2019-05-30T19:30:43.634Z,20.77
2019-05-30T19:36:49.547Z,20.68
2019-05-30T19:42:55.469Z,20.64
2019-05-30T19:49:01.407Z,20.58
2019-05-30T19:55:07.942Z,20.51
2019-05-30T20:01:13.729Z,20.44
2019-05-30T20:07:19.938Z,20.38
2019-05-30T20:13:26.976Z,20.32
2019-05-30T20:19:33.490Z,20.29
2019-05-30T20:25:43.666Z,20.28
2019-05-30T20:31:47.145Z,20.23
2019-05-30T20:37:53.192Z,20.16
2019-05-30T20:43:59.378Z,20.10
2019-05-30T20:50:06.288Z,20.06
2019-05-30T20:56:12.405Z,19.97
2019-05-30T21:02:18.372Z,19.93
2019-05-30T21:08:25.199Z,19.89
2019-05-30T21:14:35.494Z,19.85
2019-05-30T21:20:42.167Z,19.83
2019-05-30T21:26:48.026Z,19.83
2019-05-30T21:32:54.039Z,19.82
2019-05-30T21:39:00.299Z,19.83
2019-05-30T21:45:06.993Z,19.86
2019-05-30T21:51:13.173Z,19.82
2019-05-30T21:57:19.086Z,19.76
2019-05-30T22:03:25.381Z,19.74
2019-05-30T22:09:31.417Z,19.70
2019-05-30T22:15:37.385Z,19.66
2019-05-30T22:21:44.188Z,19.62
2019-05-30T22:27:50.537Z,19.58
2019-05-30T22:33:56.753Z,19.55
2019-05-30T22:40:02.605Z,19.50
2019-05-30T22:46:08.530Z,19.46
2019-05-30T22:52:14.321Z,19.41
2019-05-30T22:58:20.309Z,19.43
2019-05-30T23:04:26.222Z,19.43
2019-05-30T23:10:32.155Z,19.40
2019-05-30T23:16:38.175Z,19.36
2019-05-30T23:22:44.199Z,19.32
2019-05-30T23:28:50.290Z,19.28
2019-05-30T23:34:56.383Z,19.24
2019-05-30T23:41:02.729Z,19.21
2019-05-30T23:47:08.504Z,19.15
2019-05-30T23:53:14.543Z,19.13
2019-05-30T23:59:20.465Z,19.11
